Time;durP1;ratioP1;P1;durP2;ratioP2;P2;SDS_P1;SDS_P2;PMS_P1;PMS_P2;Temp;Humidity;BMP_temperature;BMP_pressure;BME280_temperature;BME280_humidity;BME280_pressure;Samples;Min_cycle;Max_cycle;Signal;HPM_P1;HPM_P2
2022/12/20 00:02:10;;;;;;;25.30;13.47;;;;;;;;;;10451246;28;20224;-60
2022/12/20 00:07:10;;;;;;;28.83;14.57;;;;;;;;;;10483355;23;20246;-63
2022/12/20 00:12:11;;;;;;;26.13;11.40;;;;;;;;;;10490824;28;20199;-63
2022/12/20 00:17:11;;;;;;;26.57;11.87;;;;;;;;;;10491382;28;20453;-65
2022/12/20 00:22:11;;;;;;;30.67;15.57;;;;;;;;;;10491065;28;20272;-62
2022/12/20 00:27:11;;;;;;;26.90;12.57;;;;;;;;;;10490855;28;20449;-64
2022/12/20 00:32:12;;;;;;;29.17;13.77;;;;;;;;;;10491284;28;20184;-62
2022/12/20 00:37:12;;;;;;;21.80;11.57;;;;;;;;;;10471873;28;21037;-64
2022/12/20 00:42:12;;;;;;;26.60;12.43;;;;;;;;;;10472394;28;20216;-63
2022/12/20 00:47:13;;;;;;;25.70;11.93;;;;;;;;;;10489871;28;20203;-64
2022/12/20 00:52:13;;;;;;;29.20;15.10;;;;;;;;;;10489460;28;20834;-63
2022/12/20 00:57:14;;;;;;;25.77;11.43;;;;;;;;;;10489291;28;20220;-64
2022/12/20 01:02:14;;;;;;;22.87;11.77;;;;;;;;;;10471309;28;20213;-61
2022/12/20 01:07:14;;;;;;;25.13;13.37;;;;;;;;;;10488980;28;20229;-62
2022/12/20 01:12:14;;;;;;;23.07;11.23;;;;;;;;;;10470900;28;20208;-65
2022/12/20 01:17:15;;;;;;;23.53;11.00;;;;;;;;;;10489120;28;20445;-64
2022/12/20 01:22:15;;;;;;;18.00;10.43;;;;;;;;;;10470787;28;20469;-64
2022/12/20 01:27:15;;;;;;;25.17;11.97;;;;;;;;;;10489013;28;20711;-65
2022/12/20 01:32:16;;;;;;;23.13;12.63;;;;;;;;;;10489191;28;20175;-67
2022/12/20 01:37:16;;;;;;;19.50;9.50;;;;;;;;;;10470475;28;20547;-65
2022/12/20 01:42:16;;;;;;;20.97;10.13;;;;;;;;;;10488737;28;20709;-67
2022/12/20 01:47:17;;;;;;;25.10;13.93;;;;;;;;;;10488252;28;20544;-65
2022/12/20 01:52:29;;;;;;;20.87;10.07;;;;;;;;;;10470378;28;20183;-68
2022/12/20 01:57:57;;;;;;;22.17;10.27;;;;;;;;;;10470619;28;20303;-66
2022/12/20 02:03:02;;;;;;;25.93;13.63;;;;;;;;;;10461815;28;20226;-66
2022/12/20 02:08:03;;;;;;;23.87;11.40;;;;;;;;;;10487840;28;20233;-66
2022/12/20 02:13:08;;;;;;;15.37;9.17;;;;;;;;;;10487876;28;20194;-68
2022/12/20 02:18:14;;;;;;;20.57;9.80;;;;;;;;;;10487707;28;20196;-66
2022/12/20 02:23:17;;;;;;;16.90;8.60;;;;;;;;;;10488283;28;20221;-66
2022/12/20 02:28:20;;;;;;;25.10;11.00;;;;;;;;;;10488201;28;20248;-66
2022/12/20 02:33:23;;;;;;;35.83;16.23;;;;;;;;;;10487934;28;20183;-65
2022/12/20 02:38:25;;;;;;;28.13;13.57;;;;;;;;;;10493024;28;20244;-63
2022/12/20 02:48:47;;;;;;;29.50;12.67;;;;;;;;;;10476073;28;20214;-65
2022/12/20 02:53:47;;;;;;;23.00;10.67;;;;;;;;;;10494893;28;20218;-65
2022/12/20 02:58:51;;;;;;;29.80;14.87;;;;;;;;;;10475288;28;20222;-65
2022/12/20 03:03:53;;;;;;;28.00;15.03;;;;;;;;;;10476243;28;20183;-66
2022/12/20 03:08:53;;;;;;;20.10;9.33;;;;;;;;;;10494103;28;20223;-64
2022/12/20 03:13:56;;;;;;;20.80;10.23;;;;;;;;;;10475221;28;20600;-61
2022/12/20 03:18:56;;;;;;;20.10;8.73;;;;;;;;;;10493128;28;20210;-64
2022/12/20 03:23:56;;;;;;;26.00;11.00;;;;;;;;;;10475909;28;20257;-64
2022/12/20 03:28:57;;;;;;;26.20;11.83;;;;;;;;;;10475444;28;20252;-65
2022/12/20 03:34:00;;;;;;;15.27;7.97;;;;;;;;;;10474075;28;20699;-64
2022/12/20 03:39:00;;;;;;;16.17;7.87;;;;;;;;;;10493151;28;20211;-66
2022/12/20 03:44:04;;;;;;;24.77;12.47;;;;;;;;;;10473746;28;20187;-65
2022/12/20 03:49:04;;;;;;;23.97;12.00;;;;;;;;;;10473883;28;20214;-64
2022/12/20 03:54:06;;;;;;;27.47;14.40;;;;;;;;;;10474480;28;20187;-65
2022/12/20 03:59:23;;;;;;;23.97;10.70;;;;;;;;;;10475283;28;20211;-66
2022/12/20 04:04:23;;;;;;;31.80;15.63;;;;;;;;;;10468260;28;20182;-67
2022/12/20 04:09:24;;;;;;;27.80;13.60;;;;;;;;;;10443551;28;20609;-67
2022/12/20 04:14:30;;;;;;;17.80;9.23;;;;;;;;;;10423550;28;20214;-67
2022/12/20 04:19:30;;;;;;;27.80;12.13;;;;;;;;;;10424366;28;20204;-67
2022/12/20 04:24:32;;;;;;;24.70;11.53;;;;;;;;;;10423507;28;20646;-66
2022/12/20 04:29:41;;;;;;;27.70;14.10;;;;;;;;;;10423548;28;20184;-68
2022/12/20 04:34:45;;;;;;;27.47;13.90;;;;;;;;;;10423484;28;20289;-67
2022/12/20 04:39:46;;;;;;;28.13;14.20;;;;;;;;;;10423805;28;20827;-67
2022/12/20 04:44:55;;;;;;;32.90;15.40;;;;;;;;;;10441298;28;20207;-67
2022/12/20 04:49:59;;;;;;;28.50;13.63;;;;;;;;;;10424435;28;20270;-67
2022/12/20 04:54:59;;;;;;;33.20;16.35;;;;;;;;;;10423954;28;20290;-66
2022/12/20 05:00:04;;;;;;;33.40;15.73;;;;;;;;;;10423226;28;20219;-66
2022/12/20 05:05:04;;;;;;;41.67;17.60;;;;;;;;;;10447677;28;20273;-66
2022/12/20 05:10:10;;;;;;;32.00;12.43;;;;;;;;;;10429904;28;20623;-66
2022/12/20 05:15:12;;;;;;;32.60;19.03;;;;;;;;;;10429596;28;20283;-64
2022/12/20 05:20:13;;;;;;;38.03;18.90;;;;;;;;;;10431017;28;20219;-65
2022/12/20 05:30:38;;;;;;;39.43;17.73;;;;;;;;;;10430197;28;20187;-65
2022/12/20 05:35:39;;;;;;;32.87;15.63;;;;;;;;;;10429665;28;20217;-65
2022/12/20 05:40:46;;;;;;;40.00;18.67;;;;;;;;;;10429608;28;20219;-65
2022/12/20 05:45:48;;;;;;;27.67;14.17;;;;;;;;;;10454841;28;20605;-64
2022/12/20 05:50:50;;;;;;;27.43;14.50;;;;;;;;;;10429630;28;20556;-64
2022/12/20 05:56:02;;;;;;;19.90;9.73;;;;;;;;;;10447127;28;20208;-64
2022/12/20 06:01:06;;;;;;;27.10;10.67;;;;;;;;;;10429894;28;20216;-64
2022/12/20 06:06:10;;;;;;;31.17;15.10;;;;;;;;;;10440904;23;20243;-61
2022/12/20 06:11:11;;;;;;;23.83;10.87;;;;;;;;;;10392817;28;20184;-62
2022/12/20 06:16:22;;;;;;;29.23;15.63;;;;;;;;;;10395926;28;20386;-62
2022/12/20 06:21:23;;;;;;;31.53;16.87;;;;;;;;;;10396404;28;20267;-58
2022/12/20 06:26:26;;;;;;;25.70;14.47;;;;;;;;;;10395079;28;20259;-59
2022/12/20 06:31:27;;;;;;;19.77;10.90;;;;;;;;;;10395809;28;20611;-62
2022/12/20 06:36:29;;;;;;;17.47;10.03;;;;;;;;;;10395308;28;20219;-59
2022/12/20 06:41:29;;;;;;;20.47;10.00;;;;;;;;;;10394168;28;20212;-62
2022/12/20 06:46:30;;;;;;;26.50;14.07;;;;;;;;;;10395062;28;20224;-62
2022/12/20 06:51:31;;;;;;;21.17;10.87;;;;;;;;;;10393983;28;20195;-61
2022/12/20 06:56:32;;;;;;;26.07;12.63;;;;;;;;;;10412160;28;20216;-57
2022/12/20 07:01:32;;;;;;;18.10;9.13;;;;;;;;;;10394292;28;20205;-62
2022/12/20 07:06:33;;;;;;;20.13;12.13;;;;;;;;;;10410476;28;20477;-61
2022/12/20 07:11:33;;;;;;;29.87;14.17;;;;;;;;;;10410335;28;20191;-62
2022/12/20 07:16:34;;;;;;;18.73;9.27;;;;;;;;;;10409273;28;20717;-62
2022/12/20 07:21:35;;;;;;;23.33;12.27;;;;;;;;;;10410820;28;20212;-62
2022/12/20 07:26:35;;;;;;;27.97;9.57;;;;;;;;;;10410797;28;20206;-63
2022/12/20 07:31:35;;;;;;;28.33;14.57;;;;;;;;;;10411039;28;20210;-63
2022/12/20 07:36:35;;;;;;;25.50;12.70;;;;;;;;;;10410013;28;20222;-60
2022/12/20 07:41:36;;;;;;;34.13;19.00;;;;;;;;;;10410679;28;20225;-63
2022/12/20 07:46:36;;;;;;;23.87;11.07;;;;;;;;;;10392095;28;20659;-63
2022/12/20 07:51:38;;;;;;;28.40;15.63;;;;;;;;;;10402878;28;20293;-60
2022/12/20 07:56:41;;;;;;;30.60;16.37;;;;;;;;;;10401652;28;20221;-63
2022/12/20 08:01:43;;;;;;;24.70;11.67;;;;;;;;;;10405964;28;20220;-62
2022/12/20 08:06:43;;;;;;;30.70;13.23;;;;;;;;;;10404802;28;20258;-61
2022/12/20 08:11:44;;;;;;;21.47;10.40;;;;;;;;;;10406359;28;20271;-63
2022/12/20 08:16:45;;;;;;;24.87;11.13;;;;;;;;;;10404631;28;20221;-60
2022/12/20 08:21:45;;;;;;;26.60;13.70;;;;;;;;;;10404197;28;20595;-63
2022/12/20 08:26:45;;;;;;;24.97;12.53;;;;;;;;;;10403430;28;20208;-62
2022/12/20 08:31:45;;;;;;;30.10;15.30;;;;;;;;;;10401999;28;20606;-64
2022/12/20 08:36:46;;;;;;;25.60;12.87;;;;;;;;;;10387222;28;20227;-60
2022/12/20 08:41:46;;;;;;;16.23;7.47;;;;;;;;;;10388475;28;20246;-63
2022/12/20 08:46:46;;;;;;;28.37;11.70;;;;;;;;;;10394458;28;20230;-64
2022/12/20 08:51:46;;;;;;;24.13;11.97;;;;;;;;;;10388930;28;20913;-62
2022/12/20 08:56:47;;;;;;;28.87;14.17;;;;;;;;;;10385859;28;20270;-62
2022/12/20 09:01:47;;;;;;;32.47;15.00;;;;;;;;;;10381617;28;21003;-62
2022/12/20 09:06:47;;;;;;;26.60;15.13;;;;;;;;;;10393986;28;20293;-62
2022/12/20 09:11:48;;;;;;;21.17;9.57;;;;;;;;;;10397605;28;20197;-61
2022/12/20 09:16:48;;;;;;;27.17;10.87;;;;;;;;;;10395577;28;20690;-62
2022/12/20 09:21:48;;;;;;;28.42;13.73;;;;;;;;;;10394190;28;20212;-61
2022/12/20 09:26:48;;;;;;;32.30;14.50;;;;;;;;;;10398409;28;20767;-61
2022/12/20 09:31:48;;;;;;;29.80;15.50;;;;;;;;;;10397312;28;20195;-63
2022/12/20 09:36:49;;;;;;;31.90;15.67;;;;;;;;;;10396589;28;20458;-63
2022/12/20 09:41:49;;;;;;;28.27;12.95;;;;;;;;;;10398378;28;20220;-59
2022/12/20 09:46:53;;;;;;;38.20;18.40;;;;;;;;;;10403315;28;20212;-62
2022/12/20 09:51:53;;;;;;;27.20;13.53;;;;;;;;;;10403844;28;20223;-60
2022/12/20 09:57:01;;;;;;;23.80;12.73;;;;;;;;;;10404275;28;20208;-57
2022/12/20 10:02:07;;;;;;;26.30;12.20;;;;;;;;;;10405899;28;20220;-62
2022/12/20 10:07:19;;;;;;;17.50;8.97;;;;;;;;;;10404324;28;20240;-63
2022/12/20 10:12:36;;;;;;;22.63;10.30;;;;;;;;;;10404161;28;20189;-62
2022/12/20 10:17:45;;;;;;;20.50;9.63;;;;;;;;;;10405056;28;20694;-62
2022/12/20 10:22:55;;;;;;;24.40;11.23;;;;;;;;;;10390529;28;20240;-63
2022/12/20 10:27:55;;;;;;;28.07;11.57;;;;;;;;;;10400799;28;20208;-61
2022/12/20 10:32:56;;;;;;;31.33;16.00;;;;;;;;;;10401054;28;20192;-60
2022/12/20 10:37:58;;;;;;;33.00;15.47;;;;;;;;;;10400359;28;20210;-64
2022/12/20 10:42:59;;;;;;;28.87;9.83;;;;;;;;;;10403455;28;20223;-62
2022/12/20 10:48:01;;;;;;;28.97;13.60;;;;;;;;;;10404074;28;20208;-61
2022/12/20 10:53:18;;;;;;;34.87;17.07;;;;;;;;;;10403098;28;20196;-63
2022/12/20 10:58:29;;;;;;;35.53;17.13;;;;;;;;;;10398617;28;20216;-65
2022/12/20 11:03:29;;;;;;;30.77;13.57;;;;;;;;;;10402680;28;20342;-65
2022/12/20 11:08:32;;;;;;;28.90;14.60;;;;;;;;;;10402342;28;20382;-64
2022/12/20 11:13:32;;;;;;;29.20;12.17;;;;;;;;;;10401883;28;20210;-65
2022/12/20 11:18:53;;;;;;;32.90;16.00;;;;;;;;;;10399406;28;20222;-65
2022/12/20 11:24:12;;;;;;;31.57;13.30;;;;;;;;;;10400883;28;20216;-65
2022/12/20 11:29:13;;;;;;;28.17;13.77;;;;;;;;;;10399295;28;20534;-64
2022/12/20 11:34:20;;;;;;;30.97;13.77;;;;;;;;;;10400181;28;21012;-62
2022/12/20 11:39:30;;;;;;;23.53;9.97;;;;;;;;;;10401931;28;20216;-63
2022/12/20 11:44:45;;;;;;;27.37;12.93;;;;;;;;;;10400413;28;20200;-61
2022/12/20 11:50:01;;;;;;;30.30;14.57;;;;;;;;;;10398503;28;20218;-62
2022/12/20 11:55:23;;;;;;;27.27;16.83;;;;;;;;;;10400641;28;20734;-62
2022/12/20 12:00:25;;;;;;;22.67;9.60;;;;;;;;;;10389080;28;20232;-60
2022/12/20 12:05:40;;;;;;;28.17;13.40;;;;;;;;;;10381090;28;20235;-61
2022/12/20 12:10:42;;;;;;;30.27;15.60;;;;;;;;;;10446114;23;20264;-62
2022/12/20 12:15:52;;;;;;;20.80;11.47;;;;;;;;;;10442341;28;20188;-62
2022/12/20 12:20:56;;;;;;;28.70;14.27;;;;;;;;;;10440619;28;20223;-62
2022/12/20 12:26:00;;;;;;;24.10;11.70;;;;;;;;;;10440150;28;20269;-62
2022/12/20 12:31:05;;;;;;;36.20;16.20;;;;;;;;;;10440572;28;20214;-62
2022/12/20 12:36:15;;;;;;;34.27;16.63;;;;;;;;;;10440013;28;21008;-63
2022/12/20 12:41:18;;;;;;;32.03;16.80;;;;;;;;;;10439575;28;21067;-63
2022/12/20 12:46:18;;;;;;;29.47;14.07;;;;;;;;;;10441091;28;20201;-64
2022/12/20 12:51:27;;;;;;;30.97;15.00;;;;;;;;;;10439508;28;20245;-62
2022/12/20 12:56:27;;;;;;;17.70;8.93;;;;;;;;;;10437875;28;20203;-64
2022/12/20 13:01:46;;;;;;;29.47;16.00;;;;;;;;;;10431632;28;20215;-62
2022/12/20 13:06:46;;;;;;;27.90;12.63;;;;;;;;;;10402033;28;20191;-62
2022/12/20 13:11:47;;;;;;;28.53;12.73;;;;;;;;;;10439197;28;20259;-64
2022/12/20 13:16:47;;;;;;;22.93;9.57;;;;;;;;;;10438527;28;20192;-60
2022/12/20 13:21:52;;;;;;;31.33;15.60;;;;;;;;;;10440481;28;20221;-60
2022/12/20 13:26:53;;;;;;;18.53;9.07;;;;;;;;;;10437943;28;20187;-63
2022/12/20 13:31:53;;;;;;;21.90;11.07;;;;;;;;;;10439641;28;20207;-64
2022/12/20 13:36:57;;;;;;;29.23;12.97;;;;;;;;;;10438440;28;20757;-63
2022/12/20 13:42:16;;;;;;;31.60;17.10;;;;;;;;;;10438444;28;20579;-60
2022/12/20 13:47:28;;;;;;;25.37;12.03;;;;;;;;;;10437460;28;20713;-60
2022/12/20 13:52:30;;;;;;;23.73;12.57;;;;;;;;;;10438481;28;20192;-61
2022/12/20 13:57:32;;;;;;;20.13;10.03;;;;;;;;;;10437889;28;20184;-60
2022/12/20 14:02:35;;;;;;;25.10;12.40;;;;;;;;;;10430604;28;20658;-64
2022/12/20 14:07:36;;;;;;;25.47;12.27;;;;;;;;;;10408336;28;20195;-62
2022/12/20 14:12:40;;;;;;;23.50;11.03;;;;;;;;;;10438421;28;20210;-63
2022/12/20 14:17:41;;;;;;;29.23;12.70;;;;;;;;;;10437006;28;20730;-64
2022/12/20 14:22:47;;;;;;;27.60;13.73;;;;;;;;;;10438971;28;20219;-64
2022/12/20 14:27:48;;;;;;;24.07;13.67;;;;;;;;;;10438014;28;20257;-61
2022/12/20 14:32:48;;;;;;;24.48;12.02;;;;;;;;;;10442903;28;20198;-62
2022/12/20 14:37:58;;;;;;;26.57;11.47;;;;;;;;;;10444156;28;20219;-62
2022/12/20 14:43:12;;;;;;;27.43;14.50;;;;;;;;;;10443361;28;20586;-62
2022/12/20 14:48:14;;;;;;;28.83;13.53;;;;;;;;;;10442422;28;20497;-62
2022/12/20 14:53:17;;;;;;;29.43;14.53;;;;;;;;;;10444792;28;20182;-61
2022/12/20 14:58:26;;;;;;;31.47;15.00;;;;;;;;;;10443745;28;20706;-63
2022/12/20 15:03:27;;;;;;;27.43;13.30;;;;;;;;;;10433396;28;20216;-63
2022/12/20 15:08:31;;;;;;;24.80;12.80;;;;;;;;;;10413855;28;20232;-63
2022/12/20 15:13:31;;;;;;;44.87;17.57;;;;;;;;;;10439093;28;20694;-64
2022/12/20 15:18:31;;;;;;;30.17;14.60;;;;;;;;;;10440296;28;20299;-63
2022/12/20 15:23:33;;;;;;;25.95;13.82;;;;;;;;;;10442546;28;20709;-62
2022/12/20 15:28:33;;;;;;;27.00;14.27;;;;;;;;;;10444257;28;20222;-65
2022/12/20 15:33:34;;;;;;;32.33;15.43;;;;;;;;;;10442099;28;20654;-63
2022/12/20 15:38:34;;;;;;;30.53;14.77;;;;;;;;;;10440538;28;21050;-62
2022/12/20 15:43:37;;;;;;;36.47;16.70;;;;;;;;;;10439513;28;20571;-61
2022/12/20 15:48:37;;;;;;;27.73;13.97;;;;;;;;;;10436411;28;20210;-60
2022/12/20 15:53:37;;;;;;;30.20;15.45;;;;;;;;;;10442033;28;20196;-62
2022/12/20 15:58:37;;;;;;;33.67;16.43;;;;;;;;;;10441424;28;20212;-64
2022/12/20 16:03:38;;;;;;;29.27;14.63;;;;;;;;;;10441495;28;20227;-62
2022/12/20 16:08:39;;;;;;;29.20;14.20;;;;;;;;;;10414571;28;20247;-60
2022/12/20 16:13:39;;;;;;;30.37;13.97;;;;;;;;;;10418172;28;20221;-62
2022/12/20 16:18:39;;;;;;;36.67;15.33;;;;;;;;;;10439697;28;20212;-62
2022/12/20 16:23:39;;;;;;;29.90;13.23;;;;;;;;;;10440321;28;20273;-62
2022/12/20 16:28:39;;;;;;;36.90;18.83;;;;;;;;;;10438855;28;20630;-61
2022/12/20 16:33:40;;;;;;;36.57;16.83;;;;;;;;;;10438541;28;20240;-61
2022/12/20 16:38:40;;;;;;;33.57;18.03;;;;;;;;;;10440543;28;20855;-62
2022/12/20 16:43:41;;;;;;;34.50;15.10;;;;;;;;;;10439921;28;20251;-62
2022/12/20 16:48:41;;;;;;;22.97;11.47;;;;;;;;;;10438323;28;20206;-63
2022/12/20 16:53:42;;;;;;;38.67;16.63;;;;;;;;;;10438582;28;20211;-63
2022/12/20 16:58:42;;;;;;;35.73;14.33;;;;;;;;;;10439644;28;20211;-62
2022/12/20 17:03:44;;;;;;;35.20;19.37;;;;;;;;;;10440059;28;20239;-62
2022/12/20 17:08:45;;;;;;;33.00;14.27;;;;;;;;;;10437886;28;20247;-61
2022/12/20 17:13:46;;;;;;;40.67;20.63;;;;;;;;;;10440610;28;20207;-61
2022/12/20 17:18:48;;;;;;;35.60;16.67;;;;;;;;;;10435830;28;20235;-64
2022/12/20 17:23:48;;;;;;;27.40;11.50;;;;;;;;;;10435533;28;20218;-63
2022/12/20 17:28:50;;;;;;;37.80;16.97;;;;;;;;;;10435100;28;20691;-65
2022/12/20 17:33:50;;;;;;;35.60;17.03;;;;;;;;;;10438293;28;20342;-63
2022/12/20 17:38:50;;;;;;;30.90;14.73;;;;;;;;;;10436430;28;20298;-62
2022/12/20 17:43:51;;;;;;;38.83;15.10;;;;;;;;;;10437927;28;20219;-61
2022/12/20 17:48:51;;;;;;;33.40;15.67;;;;;;;;;;10437343;28;20203;-62
2022/12/20 17:53:53;;;;;;;38.07;16.73;;;;;;;;;;10434747;28;20190;-64
2022/12/20 17:58:54;;;;;;;22.90;9.70;;;;;;;;;;10436530;28;20845;-65
2022/12/20 18:03:54;;;;;;;36.70;17.97;;;;;;;;;;10438170;28;20211;-63
2022/12/20 18:08:55;;;;;;;29.33;12.93;;;;;;;;;;10458436;22;20372;-61
2022/12/20 18:13:56;;;;;;;21.83;10.53;;;;;;;;;;10394633;28;20242;-61
2022/12/20 18:18:57;;;;;;;29.73;15.13;;;;;;;;;;10381161;28;20209;-57
2022/12/20 18:23:57;;;;;;;23.10;10.50;;;;;;;;;;10376788;28;20224;-60
2022/12/20 18:28:58;;;;;;;34.27;13.07;;;;;;;;;;10406838;28;20208;-58
2022/12/20 18:33:59;;;;;;;26.47;13.37;;;;;;;;;;10408182;28;20216;-59
2022/12/20 18:39:00;;;;;;;24.50;11.23;;;;;;;;;;10407431;28;20295;-55
2022/12/20 18:44:01;;;;;;;34.87;15.60;;;;;;;;;;10406533;28;20699;-58
2022/12/20 18:49:02;;;;;;;38.47;12.07;;;;;;;;;;10400423;28;20587;-61
2022/12/20 18:54:03;;;;;;;33.17;14.37;;;;;;;;;;10383021;28;20189;-59
2022/12/20 18:59:04;;;;;;;35.87;16.43;;;;;;;;;;10387425;28;20585;-61
2022/12/20 19:04:04;;;;;;;26.77;11.80;;;;;;;;;;10409590;28;20235;-62
2022/12/20 19:09:06;;;;;;;24.03;12.00;;;;;;;;;;10409780;28;20243;-62
2022/12/20 19:14:07;;;;;;;26.10;11.27;;;;;;;;;;10409761;28;20193;-62
2022/12/20 19:19:07;;;;;;;20.83;10.77;;;;;;;;;;10409503;28;20209;-60
2022/12/20 19:24:09;;;;;;;35.83;15.07;;;;;;;;;;10409720;28;20593;-61
2022/12/20 19:29:10;;;;;;;24.13;10.20;;;;;;;;;;10409245;28;20240;-58
2022/12/20 19:34:11;;;;;;;27.57;14.07;;;;;;;;;;10409476;28;20195;-61
2022/12/20 19:39:15;;;;;;;28.07;12.80;;;;;;;;;;10409778;28;20212;-61
2022/12/20 19:44:16;;;;;;;23.40;11.67;;;;;;;;;;10407990;28;20227;-58
2022/12/20 19:49:16;;;;;;;30.43;15.43;;;;;;;;;;10409565;28;20562;-60
2022/12/20 19:54:16;;;;;;;26.43;11.33;;;;;;;;;;10408233;28;20200;-59
2022/12/20 19:59:16;;;;;;;20.70;10.73;;;;;;;;;;10408188;28;20299;-60
2022/12/20 20:04:16;;;;;;;22.87;10.37;;;;;;;;;;10407592;28;20362;-59
2022/12/20 20:09:16;;;;;;;29.97;14.77;;;;;;;;;;10407670;28;20233;-59
2022/12/20 20:14:17;;;;;;;20.87;8.90;;;;;;;;;;10407341;28;20192;-57
2022/12/20 20:19:17;;;;;;;28.20;12.20;;;;;;;;;;10408105;28;20696;-57
2022/12/20 20:24:17;;;;;;;24.10;10.87;;;;;;;;;;10406966;28;20216;-60
2022/12/20 20:29:17;;;;;;;24.77;11.60;;;;;;;;;;10406993;28;20287;-61
2022/12/20 20:34:18;;;;;;;26.13;10.60;;;;;;;;;;10407165;28;20807;-59
2022/12/20 20:39:18;;;;;;;21.10;10.57;;;;;;;;;;10406633;28;20216;-60
2022/12/20 20:44:18;;;;;;;27.57;12.80;;;;;;;;;;10406398;28;20566;-56
2022/12/20 20:49:19;;;;;;;20.33;10.33;;;;;;;;;;10396871;28;20200;-58
2022/12/20 20:54:19;;;;;;;29.80;12.53;;;;;;;;;;10382654;28;20418;-62
2022/12/20 20:59:21;;;;;;;36.07;18.27;;;;;;;;;;10384097;28;20228;-59
2022/12/20 21:04:21;;;;;;;29.90;14.67;;;;;;;;;;10382050;28;20216;-59
2022/12/20 21:09:22;;;;;;;28.90;11.90;;;;;;;;;;10377529;28;20236;-60
2022/12/20 21:14:22;;;;;;;32.08;13.93;;;;;;;;;;10364678;28;20196;-62
2022/12/20 21:19:22;;;;;;;33.20;15.43;;;;;;;;;;10365922;28;20712;-62
2022/12/20 21:24:22;;;;;;;35.23;16.27;;;;;;;;;;10364091;28;20228;-62
2022/12/20 21:29:22;;;;;;;31.90;16.50;;;;;;;;;;10365559;28;20216;-61
2022/12/20 21:34:22;;;;;;;26.43;12.27;;;;;;;;;;10364961;28;20834;-60
2022/12/20 21:39:23;;;;;;;27.40;12.13;;;;;;;;;;10365729;28;20215;-61
2022/12/20 21:44:23;;;;;;;31.90;15.67;;;;;;;;;;10374209;28;20291;-60
2022/12/20 21:49:23;;;;;;;36.83;16.63;;;;;;;;;;10374131;28;20201;-59
2022/12/20 21:54:23;;;;;;;26.50;11.53;;;;;;;;;;10373169;28;20189;-58
2022/12/20 21:59:24;;;;;;;30.05;14.00;;;;;;;;;;10373658;28;20204;-59
2022/12/20 22:04:24;;;;;;;31.17;14.90;;;;;;;;;;10397762;28;20220;-58
2022/12/20 22:09:24;;;;;;;24.43;11.70;;;;;;;;;;10411266;28;20482;-60
2022/12/20 22:14:25;;;;;;;24.07;11.23;;;;;;;;;;10413238;28;20292;-57
2022/12/20 22:19:25;;;;;;;30.00;14.93;;;;;;;;;;10413174;28;20246;-60
2022/12/20 22:24:25;;;;;;;30.80;13.77;;;;;;;;;;10412698;28;20278;-57
2022/12/20 22:29:25;;;;;;;29.20;14.07;;;;;;;;;;10413096;28;20265;-60
2022/12/20 22:34:25;;;;;;;39.27;17.47;;;;;;;;;;10412842;28;20405;-61
2022/12/20 22:39:25;;;;;;;27.47;13.73;;;;;;;;;;10412385;28;20239;-61
2022/12/20 22:44:26;;;;;;;25.73;13.23;;;;;;;;;;10411998;28;20235;-57
2022/12/20 22:49:26;;;;;;;30.17;15.20;;;;;;;;;;10413537;28;20296;-57
2022/12/20 22:54:26;;;;;;;24.33;10.80;;;;;;;;;;10410391;28;20196;-56
2022/12/20 22:59:26;;;;;;;19.30;9.33;;;;;;;;;;10412228;28;20193;-59
2022/12/20 23:04:26;;;;;;;21.42;11.02;;;;;;;;;;10411014;28;20253;-59
2022/12/20 23:09:27;;;;;;;26.20;13.50;;;;;;;;;;10410631;28;20243;-59
2022/12/20 23:25:06;;;;;;;23.53;11.63;;;;;;;;;;10410334;28;20196;-61
2022/12/20 23:30:07;;;;;;;25.77;10.97;;;;;;;;;;10410945;28;20215;-62
2022/12/20 23:35:08;;;;;;;29.47;13.17;;;;;;;;;;10410162;28;20238;-63
2022/12/20 23:40:08;;;;;;;28.03;13.77;;;;;;;;;;10410346;28;20242;-61
2022/12/20 23:45:09;;;;;;;28.33;13.87;;;;;;;;;;10409686;28;20262;-60
2022/12/20 23:50:09;;;;;;;26.27;12.03;;;;;;;;;;10409871;28;20212;-61
2022/12/20 23:55:10;;;;;;;23.37;10.30;;;;;;;;;;10409437;28;20200;-61
